sensor_id;sensor_type;location;lat;lon;timestamp;temperature;humidity
420;DHT22;42600;54.408;13.016;2023-04-24T00:02:18;9.50;92.70
420;DHT22;42600;54.408;13.016;2023-04-24T00:04:46;9.50;92.70
420;DHT22;42600;54.408;13.016;2023-04-24T00:07:14;9.50;92.70
420;DHT22;42600;54.408;13.016;2023-04-24T00:09:41;9.50;92.70
420;DHT22;42600;54.408;13.016;2023-04-24T00:12:08;9.50;92.70
420;DHT22;42600;54.408;13.016;2023-04-24T00:14:35;9.50;92.70
420;DHT22;42600;54.408;13.016;2023-04-24T00:17:01;9.50;92.70
420;DHT22;42600;54.408;13.016;2023-04-24T00:19:29;9.60;92.70
420;DHT22;42600;54.408;13.016;2023-04-24T00:21:57;9.60;92.70
420;DHT22;42600;54.408;13.016;2023-04-24T00:24:23;9.60;92.70
420;DHT22;42600;54.408;13.016;2023-04-24T00:26:50;9.50;92.70
420;DHT22;42600;54.408;13.016;2023-04-24T00:29:16;9.50;92.70
420;DHT22;42600;54.408;13.016;2023-04-24T00:31:43;9.50;92.70
420;DHT22;42600;54.408;13.016;2023-04-24T00:34:10;9.50;92.70
420;DHT22;42600;54.408;13.016;2023-04-24T00:36:37;9.60;92.70
420;DHT22;42600;54.408;13.016;2023-04-24T00:39:05;9.60;92.70
420;DHT22;42600;54.408;13.016;2023-04-24T00:41:34;9.60;92.70
420;DHT22;42600;54.408;13.016;2023-04-24T00:44:01;9.70;92.70
420;DHT22;42600;54.408;13.016;2023-04-24T00:46:28;9.70;92.70
420;DHT22;42600;54.408;13.016;2023-04-24T00:48:56;9.70;92.70
420;DHT22;42600;54.408;13.016;2023-04-24T00:51:22;9.70;92.70
420;DHT22;42600;54.408;13.016;2023-04-24T00:53:49;9.70;92.70
420;DHT22;42600;54.408;13.016;2023-04-24T00:56:18;9.70;92.70
420;DHT22;42600;54.408;13.016;2023-04-24T00:58:45;9.70;92.70
420;DHT22;42600;54.408;13.016;2023-04-24T01:01:11;9.70;92.70
420;DHT22;42600;54.408;13.016;2023-04-24T01:03:38;9.70;92.70
420;DHT22;42600;54.408;13.016;2023-04-24T01:06:06;9.60;92.70
420;DHT22;42600;54.408;13.016;2023-04-24T01:08:34;9.60;92.70
420;DHT22;42600;54.408;13.016;2023-04-24T01:11:03;9.60;92.70
420;DHT22;42600;54.408;13.016;2023-04-24T01:13:31;9.50;92.70
420;DHT22;42600;54.408;13.016;2023-04-24T01:15:58;9.50;92.70
420;DHT22;42600;54.408;13.016;2023-04-24T01:18:25;9.50;92.70
420;DHT22;42600;54.408;13.016;2023-04-24T01:20:54;9.50;92.70
420;DHT22;42600;54.408;13.016;2023-04-24T01:23:24;9.60;92.70
420;DHT22;42600;54.408;13.016;2023-04-24T01:25:51;9.60;92.70
420;DHT22;42600;54.408;13.016;2023-04-24T01:28:18;9.60;92.70
420;DHT22;42600;54.408;13.016;2023-04-24T01:30:45;9.60;92.70
420;DHT22;42600;54.408;13.016;2023-04-24T01:33:11;9.50;92.70
420;DHT22;42600;54.408;13.016;2023-04-24T01:35:38;9.60;92.70
420;DHT22;42600;54.408;13.016;2023-04-24T01:38:05;9.60;92.70
420;DHT22;42600;54.408;13.016;2023-04-24T01:40:34;9.60;92.70
420;DHT22;42600;54.408;13.016;2023-04-24T01:43:02;9.60;92.70
420;DHT22;42600;54.408;13.016;2023-04-24T01:45:28;9.60;92.70
420;DHT22;42600;54.408;13.016;2023-04-24T01:47:55;9.60;92.70
420;DHT22;42600;54.408;13.016;2023-04-24T01:50:22;9.60;92.70
420;DHT22;42600;54.408;13.016;2023-04-24T01:52:49;9.60;92.70
420;DHT22;42600;54.408;13.016;2023-04-24T01:55:16;9.60;92.70
420;DHT22;42600;54.408;13.016;2023-04-24T01:57:44;9.50;92.70
420;DHT22;42600;54.408;13.016;2023-04-24T02:00:11;9.50;92.70
420;DHT22;42600;54.408;13.016;2023-04-24T02:02:39;9.50;92.70
420;DHT22;42600;54.408;13.016;2023-04-24T02:05:07;9.50;92.70
420;DHT22;42600;54.408;13.016;2023-04-24T02:07:33;9.50;92.70
420;DHT22;42600;54.408;13.016;2023-04-24T02:10:00;9.40;92.70
420;DHT22;42600;54.408;13.016;2023-04-24T02:12:27;9.40;92.70
420;DHT22;42600;54.408;13.016;2023-04-24T02:14:54;9.40;92.70
420;DHT22;42600;54.408;13.016;2023-04-24T02:17:21;9.40;92.70
420;DHT22;42600;54.408;13.016;2023-04-24T02:19:48;9.40;92.70
420;DHT22;42600;54.408;13.016;2023-04-24T02:22:14;9.40;92.70
420;DHT22;42600;54.408;13.016;2023-04-24T02:24:41;9.40;92.70
420;DHT22;42600;54.408;13.016;2023-04-24T02:27:07;9.40;92.70
420;DHT22;42600;54.408;13.016;2023-04-24T02:29:35;9.40;92.70
420;DHT22;42600;54.408;13.016;2023-04-24T02:32:02;9.40;92.70
420;DHT22;42600;54.408;13.016;2023-04-24T02:34:29;9.40;92.70
420;DHT22;42600;54.408;13.016;2023-04-24T02:36:56;9.30;92.70
420;DHT22;42600;54.408;13.016;2023-04-24T02:39:22;9.40;92.70
420;DHT22;42600;54.408;13.016;2023-04-24T02:41:49;9.40;92.70
420;DHT22;42600;54.408;13.016;2023-04-24T02:44:15;9.40;92.70
420;DHT22;42600;54.408;13.016;2023-04-24T02:46:43;9.40;92.70
420;DHT22;42600;54.408;13.016;2023-04-24T02:49:11;9.50;92.70
420;DHT22;42600;54.408;13.016;2023-04-24T02:51:37;9.50;92.70
420;DHT22;42600;54.408;13.016;2023-04-24T02:54:06;9.50;92.70
420;DHT22;42600;54.408;13.016;2023-04-24T02:56:33;9.60;92.70
420;DHT22;42600;54.408;13.016;2023-04-24T02:58:59;9.60;92.70
420;DHT22;42600;54.408;13.016;2023-04-24T03:01:26;9.70;92.70
420;DHT22;42600;54.408;13.016;2023-04-24T03:03:52;9.70;92.70
420;DHT22;42600;54.408;13.016;2023-04-24T03:06:20;9.70;92.70
420;DHT22;42600;54.408;13.016;2023-04-24T03:08:47;9.70;92.70
420;DHT22;42600;54.408;13.016;2023-04-24T03:11:13;9.70;92.70
420;DHT22;42600;54.408;13.016;2023-04-24T03:13:40;9.70;92.70
420;DHT22;42600;54.408;13.016;2023-04-24T03:16:07;9.70;92.70
420;DHT22;42600;54.408;13.016;2023-04-24T03:18:33;9.70;92.70
420;DHT22;42600;54.408;13.016;2023-04-24T03:21:00;9.70;92.70
420;DHT22;42600;54.408;13.016;2023-04-24T03:23:31;9.70;92.70
420;DHT22;42600;54.408;13.016;2023-04-24T03:25:57;9.70;92.70
420;DHT22;42600;54.408;13.016;2023-04-24T03:28:24;9.80;92.70
420;DHT22;42600;54.408;13.016;2023-04-24T03:30:51;9.80;92.70
420;DHT22;42600;54.408;13.016;2023-04-24T03:33:18;9.90;92.70
420;DHT22;42600;54.408;13.016;2023-04-24T03:35:44;9.90;92.70
420;DHT22;42600;54.408;13.016;2023-04-24T03:38:11;9.90;92.70
420;DHT22;42600;54.408;13.016;2023-04-24T03:40:39;9.90;92.70
420;DHT22;42600;54.408;13.016;2023-04-24T03:43:05;9.90;92.70
420;DHT22;42600;54.408;13.016;2023-04-24T03:45:32;9.90;92.70
420;DHT22;42600;54.408;13.016;2023-04-24T03:47:58;9.90;92.70
420;DHT22;42600;54.408;13.016;2023-04-24T03:50:25;10.00;92.70
420;DHT22;42600;54.408;13.016;2023-04-24T03:52:54;10.00;92.70
420;DHT22;42600;54.408;13.016;2023-04-24T03:55:20;10.00;92.70
420;DHT22;42600;54.408;13.016;2023-04-24T03:57:48;10.00;92.70
420;DHT22;42600;54.408;13.016;2023-04-24T04:00:15;9.90;92.70
420;DHT22;42600;54.408;13.016;2023-04-24T04:02:42;10.00;92.70
420;DHT22;42600;54.408;13.016;2023-04-24T04:05:09;9.90;92.70
420;DHT22;42600;54.408;13.016;2023-04-24T04:07:35;9.90;92.70
420;DHT22;42600;54.408;13.016;2023-04-24T04:10:02;9.90;92.70
420;DHT22;42600;54.408;13.016;2023-04-24T04:12:29;9.90;92.70
420;DHT22;42600;54.408;13.016;2023-04-24T04:14:57;9.90;92.70
420;DHT22;42600;54.408;13.016;2023-04-24T04:17:23;9.90;92.70
420;DHT22;42600;54.408;13.016;2023-04-24T04:19:50;9.90;92.70
420;DHT22;42600;54.408;13.016;2023-04-24T04:22:16;9.90;92.70
420;DHT22;42600;54.408;13.016;2023-04-24T04:24:43;9.90;92.70
420;DHT22;42600;54.408;13.016;2023-04-24T04:27:09;10.00;92.70
420;DHT22;42600;54.408;13.016;2023-04-24T04:29:36;10.00;92.70
420;DHT22;42600;54.408;13.016;2023-04-24T04:32:05;10.10;92.70
420;DHT22;42600;54.408;13.016;2023-04-24T04:34:31;10.20;92.70
420;DHT22;42600;54.408;13.016;2023-04-24T04:36:58;10.30;92.70
420;DHT22;42600;54.408;13.016;2023-04-24T04:39:26;10.40;92.70
420;DHT22;42600;54.408;13.016;2023-04-24T04:41:53;10.50;92.70
420;DHT22;42600;54.408;13.016;2023-04-24T04:44:20;10.50;92.70
420;DHT22;42600;54.408;13.016;2023-04-24T04:46:46;10.60;92.70
420;DHT22;42600;54.408;13.016;2023-04-24T04:49:14;10.50;92.70
420;DHT22;42600;54.408;13.016;2023-04-24T04:51:42;10.60;92.70
420;DHT22;42600;54.408;13.016;2023-04-24T04:54:08;10.50;92.70
420;DHT22;42600;54.408;13.016;2023-04-24T04:56:35;10.50;92.70
420;DHT22;42600;54.408;13.016;2023-04-24T04:59:01;10.50;92.70
420;DHT22;42600;54.408;13.016;2023-04-24T05:01:28;10.60;92.70
420;DHT22;42600;54.408;13.016;2023-04-24T05:03:55;10.60;92.70
420;DHT22;42600;54.408;13.016;2023-04-24T05:06:22;10.60;92.70
420;DHT22;42600;54.408;13.016;2023-04-24T05:08:49;10.60;92.70
420;DHT22;42600;54.408;13.016;2023-04-24T05:11:16;10.60;92.70
420;DHT22;42600;54.408;13.016;2023-04-24T05:13:43;10.60;92.70
420;DHT22;42600;54.408;13.016;2023-04-24T05:16:09;10.60;92.70
420;DHT22;42600;54.408;13.016;2023-04-24T05:18:36;10.50;92.70
420;DHT22;42600;54.408;13.016;2023-04-24T05:21:02;10.50;92.70
420;DHT22;42600;54.408;13.016;2023-04-24T05:23:30;10.50;92.70
420;DHT22;42600;54.408;13.016;2023-04-24T05:25:57;10.50;92.70
420;DHT22;42600;54.408;13.016;2023-04-24T05:28:23;10.50;92.70
420;DHT22;42600;54.408;13.016;2023-04-24T05:30:53;10.50;92.70
420;DHT22;42600;54.408;13.016;2023-04-24T05:33:20;10.40;92.70
420;DHT22;42600;54.408;13.016;2023-04-24T05:35:47;10.40;92.70
420;DHT22;42600;54.408;13.016;2023-04-24T05:38:14;10.40;92.70
420;DHT22;42600;54.408;13.016;2023-04-24T05:40:44;10.40;92.70
420;DHT22;42600;54.408;13.016;2023-04-24T05:43:11;10.40;92.70
420;DHT22;42600;54.408;13.016;2023-04-24T05:45:37;10.40;92.70
420;DHT22;42600;54.408;13.016;2023-04-24T05:48:05;10.40;92.70
420;DHT22;42600;54.408;13.016;2023-04-24T05:50:31;10.40;92.70
420;DHT22;42600;54.408;13.016;2023-04-24T05:52:58;10.40;92.70
420;DHT22;42600;54.408;13.016;2023-04-24T05:55:25;10.40;92.70
420;DHT22;42600;54.408;13.016;2023-04-24T05:57:53;10.40;92.70
420;DHT22;42600;54.408;13.016;2023-04-24T06:00:20;10.40;92.70
420;DHT22;42600;54.408;13.016;2023-04-24T06:02:47;10.40;92.70
420;DHT22;42600;54.408;13.016;2023-04-24T06:05:14;10.40;92.70
420;DHT22;42600;54.408;13.016;2023-04-24T06:07:41;10.40;92.70
420;DHT22;42600;54.408;13.016;2023-04-24T06:10:08;10.50;92.70
420;DHT22;42600;54.408;13.016;2023-04-24T06:12:35;10.50;92.70
420;DHT22;42600;54.408;13.016;2023-04-24T06:15:04;10.50;92.70
420;DHT22;42600;54.408;13.016;2023-04-24T06:17:30;10.50;92.70
420;DHT22;42600;54.408;13.016;2023-04-24T06:19:57;10.60;92.70
420;DHT22;42600;54.408;13.016;2023-04-24T06:22:24;10.60;92.70
420;DHT22;42600;54.408;13.016;2023-04-24T06:24:50;10.60;92.70
420;DHT22;42600;54.408;13.016;2023-04-24T06:27:17;10.70;92.70
420;DHT22;42600;54.408;13.016;2023-04-24T06:29:43;10.70;92.70
420;DHT22;42600;54.408;13.016;2023-04-24T06:32:11;10.70;92.70
420;DHT22;42600;54.408;13.016;2023-04-24T06:34:38;10.70;92.70
420;DHT22;42600;54.408;13.016;2023-04-24T06:37:04;10.70;92.70
420;DHT22;42600;54.408;13.016;2023-04-24T06:39:31;10.70;92.70
420;DHT22;42600;54.408;13.016;2023-04-24T06:41:58;10.70;92.70
420;DHT22;42600;54.408;13.016;2023-04-24T06:44:25;10.80;92.70
420;DHT22;42600;54.408;13.016;2023-04-24T06:46:52;10.80;92.70
420;DHT22;42600;54.408;13.016;2023-04-24T06:49:20;10.80;92.70
420;DHT22;42600;54.408;13.016;2023-04-24T06:51:46;10.80;92.70
420;DHT22;42600;54.408;13.016;2023-04-24T06:54:13;10.90;92.70
420;DHT22;42600;54.408;13.016;2023-04-24T06:56:40;11.00;92.70
420;DHT22;42600;54.408;13.016;2023-04-24T06:59:06;11.00;92.70
420;DHT22;42600;54.408;13.016;2023-04-24T07:01:33;11.10;92.70
420;DHT22;42600;54.408;13.016;2023-04-24T07:03:59;11.10;92.70
420;DHT22;42600;54.408;13.016;2023-04-24T07:06:27;11.20;92.70
420;DHT22;42600;54.408;13.016;2023-04-24T07:08:57;11.10;92.70
420;DHT22;42600;54.408;13.016;2023-04-24T07:11:23;11.20;92.70
420;DHT22;42600;54.408;13.016;2023-04-24T07:13:54;11.30;92.70
420;DHT22;42600;54.408;13.016;2023-04-24T07:16:21;11.30;92.70
420;DHT22;42600;54.408;13.016;2023-04-24T07:18:48;11.40;92.70
420;DHT22;42600;54.408;13.016;2023-04-24T07:21:14;11.40;92.70
420;DHT22;42600;54.408;13.016;2023-04-24T07:23:42;11.50;92.70
420;DHT22;42600;54.408;13.016;2023-04-24T07:26:09;11.40;92.70
420;DHT22;42600;54.408;13.016;2023-04-24T07:28:35;11.50;92.70
420;DHT22;42600;54.408;13.016;2023-04-24T07:31:02;11.60;92.70
420;DHT22;42600;54.408;13.016;2023-04-24T07:33:28;11.60;92.70
420;DHT22;42600;54.408;13.016;2023-04-24T07:35:55;11.70;92.70
420;DHT22;42600;54.408;13.016;2023-04-24T07:38:22;11.70;92.70
420;DHT22;42600;54.408;13.016;2023-04-24T07:40:52;11.80;92.70
420;DHT22;42600;54.408;13.016;2023-04-24T07:43:20;11.80;92.70
420;DHT22;42600;54.408;13.016;2023-04-24T07:45:46;11.90;92.70
420;DHT22;42600;54.408;13.016;2023-04-24T07:48:13;11.90;92.70
420;DHT22;42600;54.408;13.016;2023-04-24T07:50:41;12.00;92.70
420;DHT22;42600;54.408;13.016;2023-04-24T07:53:08;12.10;92.70
420;DHT22;42600;54.408;13.016;2023-04-24T07:55:34;12.10;92.70
420;DHT22;42600;54.408;13.016;2023-04-24T07:58:02;12.20;92.70
420;DHT22;42600;54.408;13.016;2023-04-24T08:00:29;12.20;92.70
420;DHT22;42600;54.408;13.016;2023-04-24T08:02:56;12.30;92.70
420;DHT22;42600;54.408;13.016;2023-04-24T08:05:22;12.40;92.70
420;DHT22;42600;54.408;13.016;2023-04-24T08:07:50;12.50;92.70
420;DHT22;42600;54.408;13.016;2023-04-24T08:10:17;12.50;92.70
420;DHT22;42600;54.408;13.016;2023-04-24T08:12:44;12.70;92.70
420;DHT22;42600;54.408;13.016;2023-04-24T08:15:12;12.70;92.70
420;DHT22;42600;54.408;13.016;2023-04-24T08:17:38;13.00;92.70
420;DHT22;42600;54.408;13.016;2023-04-24T08:20:06;13.10;92.70
420;DHT22;42600;54.408;13.016;2023-04-24T08:22:38;13.20;92.70
420;DHT22;42600;54.408;13.016;2023-04-24T08:25:05;13.30;92.70
420;DHT22;42600;54.408;13.016;2023-04-24T08:27:32;13.40;92.70
420;DHT22;42600;54.408;13.016;2023-04-24T08:29:59;13.50;92.70
420;DHT22;42600;54.408;13.016;2023-04-24T08:32:27;13.50;92.70
420;DHT22;42600;54.408;13.016;2023-04-24T08:34:54;13.60;92.70
420;DHT22;42600;54.408;13.016;2023-04-24T08:37:21;13.70;92.70
420;DHT22;42600;54.408;13.016;2023-04-24T08:39:48;13.70;92.70
420;DHT22;42600;54.408;13.016;2023-04-24T08:42:15;13.80;92.70
420;DHT22;42600;54.408;13.016;2023-04-24T08:44:43;13.90;92.70
420;DHT22;42600;54.408;13.016;2023-04-24T08:47:10;13.90;92.70
420;DHT22;42600;54.408;13.016;2023-04-24T08:49:39;14.00;92.70
420;DHT22;42600;54.408;13.016;2023-04-24T08:52:06;14.00;92.70
420;DHT22;42600;54.408;13.016;2023-04-24T08:54:34;14.10;92.70
420;DHT22;42600;54.408;13.016;2023-04-24T08:57:01;14.10;92.70
420;DHT22;42600;54.408;13.016;2023-04-24T08:59:29;14.10;92.70
420;DHT22;42600;54.408;13.016;2023-04-24T09:01:56;14.10;92.70
420;DHT22;42600;54.408;13.016;2023-04-24T09:04:24;14.20;92.40
420;DHT22;42600;54.408;13.016;2023-04-24T09:06:55;14.30;92.30
420;DHT22;42600;54.408;13.016;2023-04-24T09:09:22;14.40;92.10
420;DHT22;42600;54.408;13.016;2023-04-24T09:11:49;14.40;91.80
420;DHT22;42600;54.408;13.016;2023-04-24T09:14:16;14.50;90.40
420;DHT22;42600;54.408;13.016;2023-04-24T09:16:43;14.60;88.80
420;DHT22;42600;54.408;13.016;2023-04-24T09:19:10;14.60;87.30
420;DHT22;42600;54.408;13.016;2023-04-24T09:21:36;14.70;86.50
420;DHT22;42600;54.408;13.016;2023-04-24T09:24:06;14.80;87.50
420;DHT22;42600;54.408;13.016;2023-04-24T09:26:35;14.90;86.40
420;DHT22;42600;54.408;13.016;2023-04-24T09:29:03;15.00;86.50
420;DHT22;42600;54.408;13.016;2023-04-24T09:31:30;15.10;85.80
420;DHT22;42600;54.408;13.016;2023-04-24T09:33:58;15.20;84.90
420;DHT22;42600;54.408;13.016;2023-04-24T09:36:27;15.30;84.10
420;DHT22;42600;54.408;13.016;2023-04-24T09:38:57;15.30;83.70
420;DHT22;42600;54.408;13.016;2023-04-24T09:41:26;15.30;82.40
420;DHT22;42600;54.408;13.016;2023-04-24T09:43:53;15.20;82.90
420;DHT22;42600;54.408;13.016;2023-04-24T09:46:20;15.20;82.70
420;DHT22;42600;54.408;13.016;2023-04-24T09:48:48;15.20;83.10
420;DHT22;42600;54.408;13.016;2023-04-24T09:51:14;15.30;83.80
420;DHT22;42600;54.408;13.016;2023-04-24T09:53:45;15.30;83.80
420;DHT22;42600;54.408;13.016;2023-04-24T09:56:12;15.30;84.00
420;DHT22;42600;54.408;13.016;2023-04-24T09:58:40;15.40;84.10
420;DHT22;42600;54.408;13.016;2023-04-24T10:01:06;15.60;83.60
420;DHT22;42600;54.408;13.016;2023-04-24T10:03:33;15.60;82.70
420;DHT22;42600;54.408;13.016;2023-04-24T10:06:01;15.80;82.00
420;DHT22;42600;54.408;13.016;2023-04-24T10:08:33;15.90;82.00
420;DHT22;42600;54.408;13.016;2023-04-24T10:11:00;16.00;81.80
420;DHT22;42600;54.408;13.016;2023-04-24T10:13:26;16.10;81.40
420;DHT22;42600;54.408;13.016;2023-04-24T10:15:56;16.00;79.40
420;DHT22;42600;54.408;13.016;2023-04-24T10:18:23;16.10;79.60
420;DHT22;42600;54.408;13.016;2023-04-24T10:20:50;16.10;79.80
420;DHT22;42600;54.408;13.016;2023-04-24T10:23:20;16.20;79.80
420;DHT22;42600;54.408;13.016;2023-04-24T10:25:48;16.30;80.80
420;DHT22;42600;54.408;13.016;2023-04-24T10:28:15;16.40;81.00
420;DHT22;42600;54.408;13.016;2023-04-24T10:30:43;16.50;79.10
420;DHT22;42600;54.408;13.016;2023-04-24T10:33:11;16.60;79.60
420;DHT22;42600;54.408;13.016;2023-04-24T10:35:45;16.70;79.70
420;DHT22;42600;54.408;13.016;2023-04-24T10:38:15;16.70;78.20
420;DHT22;42600;54.408;13.016;2023-04-24T10:40:43;16.70;78.80
420;DHT22;42600;54.408;13.016;2023-04-24T10:43:09;16.70;78.40
420;DHT22;42600;54.408;13.016;2023-04-24T10:45:37;16.70;78.10
420;DHT22;42600;54.408;13.016;2023-04-24T10:48:05;16.70;78.20
420;DHT22;42600;54.408;13.016;2023-04-24T10:50:45;16.70;78.90
420;DHT22;42600;54.408;13.016;2023-04-24T10:53:14;16.70;79.00
420;DHT22;42600;54.408;13.016;2023-04-24T10:55:43;16.70;78.50
420;DHT22;42600;54.408;13.016;2023-04-24T10:58:10;16.70;78.60
420;DHT22;42600;54.408;13.016;2023-04-24T11:00:38;16.70;78.60
420;DHT22;42600;54.408;13.016;2023-04-24T11:03:05;16.70;78.60
420;DHT22;42600;54.408;13.016;2023-04-24T11:05:52;16.70;79.00
420;DHT22;42600;54.408;13.016;2023-04-24T11:08:25;16.70;78.80
420;DHT22;42600;54.408;13.016;2023-04-24T11:10:56;16.70;78.10
420;DHT22;42600;54.408;13.016;2023-04-24T11:13:24;16.70;78.60
420;DHT22;42600;54.408;13.016;2023-04-24T11:16:14;16.80;78.40
420;DHT22;42600;54.408;13.016;2023-04-24T11:18:42;16.80;78.30
420;DHT22;42600;54.408;13.016;2023-04-24T11:21:12;16.80;78.10
420;DHT22;42600;54.408;13.016;2023-04-24T11:23:39;16.80;77.60
420;DHT22;42600;54.408;13.016;2023-04-24T11:26:12;16.90;77.60
420;DHT22;42600;54.408;13.016;2023-04-24T11:28:45;17.00;78.00
420;DHT22;42600;54.408;13.016;2023-04-24T11:31:34;17.00;76.60
420;DHT22;42600;54.408;13.016;2023-04-24T11:34:06;17.10;76.00
420;DHT22;42600;54.408;13.016;2023-04-24T11:36:35;17.00;75.90
420;DHT22;42600;54.408;13.016;2023-04-24T11:39:02;17.00;76.10
420;DHT22;42600;54.408;13.016;2023-04-24T11:41:28;17.10;76.90
420;DHT22;42600;54.408;13.016;2023-04-24T11:43:56;17.20;76.40
420;DHT22;42600;54.408;13.016;2023-04-24T11:46:26;17.20;76.40
420;DHT22;42600;54.408;13.016;2023-04-24T11:48:53;17.20;75.70
420;DHT22;42600;54.408;13.016;2023-04-24T11:51:19;17.20;75.80
420;DHT22;42600;54.408;13.016;2023-04-24T11:53:47;17.20;76.40
420;DHT22;42600;54.408;13.016;2023-04-24T11:56:17;17.30;76.90
420;DHT22;42600;54.408;13.016;2023-04-24T11:58:45;17.40;76.50
420;DHT22;42600;54.408;13.016;2023-04-24T12:01:12;17.50;77.60
420;DHT22;42600;54.408;13.016;2023-04-24T12:03:39;17.70;77.40
420;DHT22;42600;54.408;13.016;2023-04-24T12:06:09;17.70;77.20
420;DHT22;42600;54.408;13.016;2023-04-24T12:08:37;17.80;74.80
420;DHT22;42600;54.408;13.016;2023-04-24T12:11:06;17.70;73.70
420;DHT22;42600;54.408;13.016;2023-04-24T12:13:33;17.80;76.30
420;DHT22;42600;54.408;13.016;2023-04-24T12:16:02;17.80;75.50
420;DHT22;42600;54.408;13.016;2023-04-24T12:18:29;17.80;76.20
420;DHT22;42600;54.408;13.016;2023-04-24T12:21:14;17.90;75.70
420;DHT22;42600;54.408;13.016;2023-04-24T12:23:43;17.90;75.20
420;DHT22;42600;54.408;13.016;2023-04-24T12:26:11;17.90;75.40
420;DHT22;42600;54.408;13.016;2023-04-24T12:28:38;17.90;76.50
420;DHT22;42600;54.408;13.016;2023-04-24T12:31:06;17.90;77.10
420;DHT22;42600;54.408;13.016;2023-04-24T12:33:33;18.00;75.70
420;DHT22;42600;54.408;13.016;2023-04-24T12:36:00;18.00;75.70
420;DHT22;42600;54.408;13.016;2023-04-24T12:38:28;18.00;75.60
420;DHT22;42600;54.408;13.016;2023-04-24T12:41:02;18.00;75.30
420;DHT22;42600;54.408;13.016;2023-04-24T12:43:30;17.90;74.50
420;DHT22;42600;54.408;13.016;2023-04-24T12:45:57;17.80;74.40
420;DHT22;42600;54.408;13.016;2023-04-24T12:48:24;17.80;76.50
420;DHT22;42600;54.408;13.016;2023-04-24T12:50:51;17.90;73.00
420;DHT22;42600;54.408;13.016;2023-04-24T12:53:17;17.80;76.30
420;DHT22;42600;54.408;13.016;2023-04-24T12:55:44;18.00;76.60
420;DHT22;42600;54.408;13.016;2023-04-24T12:58:12;18.10;75.20
420;DHT22;42600;54.408;13.016;2023-04-24T13:00:40;18.10;75.80
420;DHT22;42600;54.408;13.016;2023-04-24T13:03:08;18.10;75.90
420;DHT22;42600;54.408;13.016;2023-04-24T13:05:35;18.20;75.80
420;DHT22;42600;54.408;13.016;2023-04-24T13:08:01;18.30;76.40
420;DHT22;42600;54.408;13.016;2023-04-24T13:10:28;18.20;75.30
420;DHT22;42600;54.408;13.016;2023-04-24T13:12:55;18.20;75.90
420;DHT22;42600;54.408;13.016;2023-04-24T13:15:21;18.30;75.70
420;DHT22;42600;54.408;13.016;2023-04-24T13:17:51;18.20;75.60
420;DHT22;42600;54.408;13.016;2023-04-24T13:20:17;18.20;74.80
420;DHT22;42600;54.408;13.016;2023-04-24T13:22:44;18.20;74.90
420;DHT22;42600;54.408;13.016;2023-04-24T13:25:11;18.10;76.10
420;DHT22;42600;54.408;13.016;2023-04-24T13:27:38;18.30;74.20
420;DHT22;42600;54.408;13.016;2023-04-24T13:30:06;18.10;73.20
420;DHT22;42600;54.408;13.016;2023-04-24T13:32:33;17.90;73.70
420;DHT22;42600;54.408;13.016;2023-04-24T13:35:02;18.10;78.40
420;DHT22;42600;54.408;13.016;2023-04-24T13:37:28;18.20;75.00
420;DHT22;42600;54.408;13.016;2023-04-24T13:39:55;18.20;75.30
420;DHT22;42600;54.408;13.016;2023-04-24T13:42:21;18.20;72.10
420;DHT22;42600;54.408;13.016;2023-04-24T13:44:48;17.90;73.10
420;DHT22;42600;54.408;13.016;2023-04-24T13:47:16;18.10;75.00
420;DHT22;42600;54.408;13.016;2023-04-24T13:49:42;18.20;73.60
420;DHT22;42600;54.408;13.016;2023-04-24T13:52:10;18.00;74.20
420;DHT22;42600;54.408;13.016;2023-04-24T13:54:37;17.90;73.00
420;DHT22;42600;54.408;13.016;2023-04-24T13:57:04;17.90;74.60
420;DHT22;42600;54.408;13.016;2023-04-24T13:59:30;17.90;75.00
420;DHT22;42600;54.408;13.016;2023-04-24T14:01:57;17.90;76.50
420;DHT22;42600;54.408;13.016;2023-04-24T14:04:23;17.90;74.70
420;DHT22;42600;54.408;13.016;2023-04-24T14:06:50;17.80;76.10
420;DHT22;42600;54.408;13.016;2023-04-24T14:09:18;17.70;74.60
420;DHT22;42600;54.408;13.016;2023-04-24T14:11:45;17.50;77.10
420;DHT22;42600;54.408;13.016;2023-04-24T14:14:11;17.30;77.40
420;DHT22;42600;54.408;13.016;2023-04-24T14:16:38;17.30;78.20
420;DHT22;42600;54.408;13.016;2023-04-24T14:19:04;17.20;77.40
420;DHT22;42600;54.408;13.016;2023-04-24T14:21:32;17.10;78.90
420;DHT22;42600;54.408;13.016;2023-04-24T14:23:58;17.00;79.00
420;DHT22;42600;54.408;13.016;2023-04-24T14:26:26;16.90;80.60
420;DHT22;42600;54.408;13.016;2023-04-24T14:28:53;16.80;81.40
420;DHT22;42600;54.408;13.016;2023-04-24T14:31:20;16.50;82.00
420;DHT22;42600;54.408;13.016;2023-04-24T14:33:46;16.40;82.80
420;DHT22;42600;54.408;13.016;2023-04-24T14:36:13;16.50;82.40
420;DHT22;42600;54.408;13.016;2023-04-24T14:38:40;16.50;82.50
420;DHT22;42600;54.408;13.016;2023-04-24T14:41:06;16.50;82.50
420;DHT22;42600;54.408;13.016;2023-04-24T14:43:36;16.30;83.80
420;DHT22;42600;54.408;13.016;2023-04-24T14:46:03;16.30;84.20
420;DHT22;42600;54.408;13.016;2023-04-24T14:48:30;16.20;84.50
420;DHT22;42600;54.408;13.016;2023-04-24T14:50:57;16.20;84.50
420;DHT22;42600;54.408;13.016;2023-04-24T14:53:23;16.10;85.30
420;DHT22;42600;54.408;13.016;2023-04-24T14:55:50;16.20;84.50
420;DHT22;42600;54.408;13.016;2023-04-24T14:58:17;16.20;85.00
420;DHT22;42600;54.408;13.016;2023-04-24T15:00:45;16.10;85.50
420;DHT22;42600;54.408;13.016;2023-04-24T15:03:11;16.10;85.40
420;DHT22;42600;54.408;13.016;2023-04-24T15:05:38;16.10;85.60
420;DHT22;42600;54.408;13.016;2023-04-24T15:08:04;16.10;85.60
420;DHT22;42600;54.408;13.016;2023-04-24T15:10:31;16.20;85.10
420;DHT22;42600;54.408;13.016;2023-04-24T15:12:57;16.20;85.10
420;DHT22;42600;54.408;13.016;2023-04-24T15:15:24;16.00;86.00
420;DHT22;42600;54.408;13.016;2023-04-24T15:17:52;16.00;85.80
420;DHT22;42600;54.408;13.016;2023-04-24T15:20:19;16.00;85.90
420;DHT22;42600;54.408;13.016;2023-04-24T15:22:46;15.80;87.00
420;DHT22;42600;54.408;13.016;2023-04-24T15:25:13;15.80;87.00
420;DHT22;42600;54.408;13.016;2023-04-24T15:27:41;15.70;87.40
420;DHT22;42600;54.408;13.016;2023-04-24T15:30:09;15.80;87.20
420;DHT22;42600;54.408;13.016;2023-04-24T15:32:36;15.90;86.60
420;DHT22;42600;54.408;13.016;2023-04-24T15:35:05;15.70;87.70
420;DHT22;42600;54.408;13.016;2023-04-24T15:37:32;15.30;88.80
420;DHT22;42600;54.408;13.016;2023-04-24T15:39:58;15.10;90.00
420;DHT22;42600;54.408;13.016;2023-04-24T15:42:25;15.30;89.20
420;DHT22;42600;54.408;13.016;2023-04-24T15:44:52;15.50;88.60
420;DHT22;42600;54.408;13.016;2023-04-24T15:47:19;15.40;89.20
420;DHT22;42600;54.408;13.016;2023-04-24T15:49:45;15.50;89.10
420;DHT22;42600;54.408;13.016;2023-04-24T15:52:13;15.40;89.40